Blythe, CA

4:55 PM PDT on August 28, 2015 (GMT -0700)
farmerman92225 | | Change Station
CLOSE
Current Station
Personal Weather Station
Location: Blythe, CA
Elevation: 259 ft
Nearby Weather Stations
Active Advisory: Blowing Dust Advisory

Elev 259 ft 33.62 °N, 114.66 °W | Updated 40 seconds ago

Clear
Clear
110.4 °F
Feels Like 113 °F
N
5.0
Wind Variable Wind from South
Gusts 6.0 mph

Today
High -- | Low -- °F
--% Chance of Precip.
Yesterday
High -- | Low -- °F
Precip. -- in
6:09 AM 7:09 PM
Waxing Gibbous, 99% visible
Pressure 29.69 in
Visibility 10.0 miles
Clouds Clear
Heat Index 113 °F
Dew Point 60 °F
Humidity 20%
Rainfall 0.00 in
Snow Depth Not available.
UV 3 out of 12
Pollen 6.60 out of 12
Air Quality Not available.
Flu Activity Not available.
METAR KBLH 282352Z AUTO 16007KT 10SM CLR 43/15 A2972 RMK AO2 SLP054 T04330150 10433 20383 56023
Pressure 29.69 in
Visibility 10.0 miles
Clouds Clear
Heat Index 113 °F
Dew Point 60 °F
Humidity 20%
Rainfall 0.00 in
Snow Depth Not available.
UV 3 out of 12
Pollen 6.60 out of 12
Air Quality Not available.
Flu Activity Not available.
METAR KBLH 282352Z AUTO 16007KT 10SM CLR 43/15 A2972 RMK AO2 SLP054 T04330150 10433 20383 56023

10-Day Weather Forecast

×

Almanac

Astronomy

Aug. 28, 2015 Rise Set
Actual Time
Civil Twilight
Nautical Twilight
Astronomical Twilight
Moon
Length of Visible Light
Length of Day
Tomorrow will be .
, % of the Moon is Illuminated

Today's Extremes

State Highs State Lows

Community

WunderPhotos

Upload Photos

1,850,532 photos uploaded!

WunderBlogs® & News

Nearby

Air Quality

  Air Quality AQ Index Pollutant
Not available.

Snow Depth

Station Depth Elevation

Earthquake Activity

City Distance Mag. Time & Date
Minimum magnitude displayed is 2.5.

Coastal Water Temperatures

Place Temperature

Stations

Nearby Weather Stations

Station Location Temp. Windchill Dew Point Humidity Wind Precip. Elev Updated Type
                   
Blowing Dust Advisory
Statement as of 3:19 PM PDT on August 28, 2015

... Blowing dust advisory in effect until 5 PM MST /5 PM PDT/ this
afternoon...

The National Weather Service in Phoenix has issued a blowing dust
advisory... which is in effect until 5 PM MST /5 PM PDT/ this
afternoon.

* Affected area... lower Colorado River valley including
Yuma... Martinez Lake..Somerton... Interstate 8 and U.S. Highway 95.

* Timing... until 5 PM MST / 5 PM PDT this afternoon.

* Winds... north-northeast 35-45 mph with gusts up to 50 mph possible.

* Visibility... between one mile and one half mile at times.

* Impacts... dangerously reduced visibilities will lead to hazardous
driving conditions.

Precautionary/preparedness actions...

Be ready for a sudden drop in visibility. If you encounter
blowing dust or blowing sand on the roadway or see it
approaching... pull off the Road as far as possible and put your
vehicle in Park. Turn the lights all the way off and keep your
foot off the brake pedal.

Remember... pull aside... stay alive.



Cdewey